METAR Data
IDs: Format: Raw Decoded Include TAF

Data at: 1313 UTC 07 Jul 2020

KCEU 071305Z AUTO 07009G15KT 3SM -RA BR SCT007 OVC012 22/21 A3005 RMK AO2 P0001 T02170206
KCEU 071254Z AUTO 06009KT 3SM RA BR BKN005 OVC012 22/21 A3005 RMK AO2 CIG 004V010 SLP167 P0018 T02170206
KCEU 071241Z AUTO 05007KT 2SM RA BR OVC005 22/21 A3005 RMK AO2 CIG 003V009 P0015 T02170206
KCEU 071233Z AUTO 07007KT 1 3/4SM +RA BR BKN005 OVC010 22/21 A3005 RMK AO2 CIG 003V008 P0013 T02170206
KCEU 071211Z AUTO 07006KT 2SM RA BR BKN005 OVC014 22/21 A3005 RMK AO2 CIG 003V009 P0004 T02170206
KCEU 071201Z AUTO 07007KT 1 1/2SM RA BR BKN005 OVC014 22/21 A3005 RMK AO2 CIG 003V009 P0002 T02170206
KCEU 071154Z AUTO 07007KT 2SM RA BR BKN005 BKN009 OVC014 22/21 A3004 RMK AO2 CIG 003V007 SLP166 P0004 60011 70078 T02170206 10217 20217 53004
KCEU 071112Z AUTO 07005KT 5SM -RA BR BKN006 OVC013 22/21 A3004 RMK AO2 CIG 004V010 P0000 T02170206
KCEU 071054Z AUTO 06007G14KT 5SM -RA BR SCT007 OVC014 22/21 A3004 RMK AO2 RAB31 SLP162 P0006 T02170206
KCEU 071050Z AUTO 07006G14KT 4SM -RA BR FEW007 OVC014 22/21 A3004 RMK AO2 RAB31 P0006
KCEU 071042Z AUTO 06009KT 2 1/2SM -RA BR FEW007 OVC014 22/21 A3003 RMK AO2 RAB31 P0005 T02170206
KCEU 071029Z AUTO VRB06KT 9SM SCT008 OVC014 22/21 A3003 RMK AO2 T02170206
KCEU 070954Z AUTO 05006KT 10SM SCT009 OVC019 22/21 A3003 RMK AO2 SLP159 T02170206
KCEU 070941Z AUTO 05006KT 10SM SCT007 OVC018 22/21 A3003 RMK AO2 T02170206
KCEU 070903Z AUTO 06006KT 9SM BKN007 OVC017 22/21 A3003 RMK AO2 CIG 004V010 T02170206
KCEU 070854Z AUTO 06006KT 4SM BR SCT007 BKN015 OVC022 22/21 A3002 RMK AO2 RAB10E19B27E30 SLP158 P0000 60001 T02170206 56013
KCEU 070820Z AUTO 05006KT 6SM BR FEW007 OVC018 22/21 A3003 RMK AO2 RAB10E19 P0000 T02170206
KCEU 070754Z AUTO 07004KT 9SM OVC018 22/21 A3003 RMK AO2 SLP160 T02170206
KCEU 070735Z AUTO 06004KT 10SM FEW006 OVC018 22/21 A3003 RMK AO2 T02170211
KCEU 070654Z AUTO 06004KT 10SM OVC018 22/21 A3004 RMK AO2 RAB12E53 SLP164 P0001 T02170206
KCEU 070615Z AUTO 09004KT 6SM -RA BR FEW007 BKN019 OVC025 22/21 A3006 RMK AO2 RAB12 P0001 T02170206
KCEU 070606Z AUTO 06003KT 10SM BKN025 OVC065 22/21 A3006 RMK AO2 T02170206
KCEU 070554Z AUTO 04004KT 8SM SCT027 OVC070 22/21 A3006 RMK AO2 RAE0455 SLP169 P0000 60004 T02170206 10222 20217 56005
KCEU 070454Z AUTO 04005KT 9SM -RA OVC060 22/21 A3007 RMK AO2 RAB34 SLP172 P0000 T02170206 402720211
KCEU 070426Z AUTO 04005KT 8SM FEW019 SCT029 OVC055 22/21 A3006 RMK AO2 T02170206
KCEU 070411Z AUTO 05006KT 9SM FEW011 BKN029 OVC050 22/21 A3007 RMK AO2 T02170206
KCEU 070402Z AUTO 05005KT 9SM SCT012 BKN030 OVC039 22/21 A3006 RMK AO2 T02170206
KCEU 070354Z AUTO 06006KT 9SM FEW005 BKN013 OVC043 22/21 A3007 RMK AO2 RAE54 SLP171 P0002 T02170206
KCEU 070341Z AUTO 04004KT 7SM -RA FEW005 BKN014 OVC050 22/21 A3007 RMK AO2 P0002 T02170211
KCEU 070331Z AUTO 03004KT 6SM -RA BR BKN005 BKN014 OVC050 22/21 A3007 RMK AO2 CIG 003V008 P0002 T02170206
KCEU 070304Z AUTO 06003KT 6SM -RA BR FEW004 SCT044 OVC060 22/21 A3008 RMK AO2 P0000 T02170211
KCEU 070254Z AUTO 04004KT 7SM -RA SCT040 BKN048 OVC060 22/21 A3008 RMK AO2 RAE32B50 SLP174 P0000 60002 T02170211 55000
KCEU 070235Z AUTO 06005KT 9SM FEW004 SCT029 OVC039 22/21 A3008 RMK AO2 RAE32 P0000 T02170206
KCEU 070222Z AUTO 08004KT 7SM -RA SCT004 BKN027 OVC042 22/21 A3008 RMK AO2 P0000 T02170211
KCEU 070154Z AUTO 05004KT 8SM -RA FEW006 SCT045 BKN120 22/21 A3008 RMK AO2 RAB07 SLP174 P0001 T02170211
KCEU 070105Z AUTO 15003KT 8SM FEW007 FEW080 BKN110 22/21 A3008 RMK AO2 T02170211
KCEU 070054Z AUTO 00000KT 10SM FEW050 SCT080 BKN120 22/21 A3007 RMK AO2 RAB2356E50 SLP174 P0001 T02170211
KCEU 070028Z AUTO 00000KT 9SM -RA SCT014 BKN036 OVC085 22/21 A3007 RMK AO2 LTG DSNT N RAB2356 P0001 T02170211
KCEU 070019Z AUTO 17004KT 8SM -RA SCT007 BKN026 OVC085 22/21 A3007 RMK AO2 RAB2356 P0000 T02170206
KCEU 062354Z AUTO VRB04KT 10SM BKN009 OVC110 22/21 A3008 RMK AO2 RAE36 CIG 005V013 SLP176 P0017 60060 T02170206 10272 20217 53010
KCEU 062341Z AUTO VRB05KT 10SM VCTS BKN009 BKN055 OVC110 22/21 A3007 RMK AO2 RAE36 P0017 T02170206
KCEU 062326Z AUTO VRB04KT 6SM VCTS -RA BR SCT009 BKN049 OVC070 22/21 A3007 RMK AO2 LTG DSNT S AND SW P0017 T02220211
KCEU 062323Z AUTO VRB03KT 4SM -RA BR SCT009 BKN023 OVC070 22/21 A3006 RMK AO2 LTG DSNT SE-SW P0016 T02220211
KCEU 062320Z AUTO VRB05KT 2SM -RA BR FEW009 BKN043 OVC065 22/21 A3006 RMK AO2 LTG DSNT SE-SW P0016 T02220211
KCEU 062312Z AUTO 16005KT 1SM +RA BR SCT018 SCT026 OVC041 22/21 A3006 RMK AO2 LTG DSNT SE-SW P0015 T02220211
KCEU 062304Z AUTO VRB05G17KT 1SM +RA BR SCT018 BKN026 BKN041 22/21 A3006 RMK AO2 LTG DSNT S P0008 T02170211
KCEU 062259Z AUTO 18007G23KT 1/4SM +RA FG FEW008 BKN018 BKN042 22/21 A3006 RMK AO2 LTG DSNT SE AND S P0005 T02170206
KCEU 062254Z AUTO 16012G23KT 120V190 1/4SM +RA FG FEW010 SCT018 BKN043 23/21 A3006 RMK AO2 LTG DSNT SE AND S RAB50 SLP169 P0030 T02280211
KCEU 062251Z AUTO 13011G23KT 100V190 1 1/4SM -RA BR FEW012 SCT018 BKN043 24/22 A3006 RMK AO2 LTG DSNT SE AND S RAB50 P0009
KCEU 062154Z AUTO 07006KT 9SM FEW095 25/23 A3004 RMK AO2 LTG DSNT E AND SE SLP163 T02500228
KCEU 062054Z AUTO 05006KT 9SM FEW004 FEW075 BKN100 24/22 A3005 RMK AO2 LTG DSNT NW RAB21E46 SLP165 P0001 60013 T02390222 58004
KCEU 062044Z AUTO 03005KT 7SM -RA FEW005 BKN090 24/22 A3005 RMK AO2 LTG DSNT NW RAB21 P0001 T02390222
KCEU 061954Z AUTO 05005KT 9SM BKN065 OVC085 24/22 A3006 RMK AO2 RAE48 SLP168 P0008 T02440222
KCEU 061952Z AUTO 04005KT 10SM FEW034 BKN065 OVC080 25/22 A3006 RMK AO2 RAE48 P0008
KCEU 061937Z AUTO 35005KT 7SM VCTS -RA FEW019 SCT033 OVC060 23/22 A3006 RMK AO2 P0008 T02330217
KCEU 061921Z AUTO 35003KT 3SM -RA BR SCT019 BKN031 OVC050 23/22 A3006 RMK AO2 LTG DSNT E P0008 T02330217
KCEU 061908Z AUTO 00000KT 2SM -RA BR FEW020 BKN028 OVC049 23/22 A3006 RMK AO2 P0006 T02330217
KCEU 061904Z AUTO 00000KT 1 3/4SM RA BR SCT028 BKN041 OVC049 23/22 A3006 RMK AO2 P0006 T02330217
KCEU 061854Z AUTO 12006KT 2 1/2SM +RA BR FEW015 BKN039 OVC047 24/22 A3006 RMK AO2 RAB36 SLP168 P0004 T02440222
KCEU 061754Z AUTO 06006KT 10SM SCT034 26/22 A3006 RMK AO2 RAE30 SLP168 P0002 60003 T02610222 10272 20228 58009
KCEU 061654Z AUTO 06008KT 5SM -RA FEW019 BKN030 OVC039 24/22 A3010 RMK AO2 RAB21 SLP181 P0001 T02440217
KCEU 061554Z AUTO 06008KT 10SM SCT036 BKN045 BKN070 27/20 A3008 RMK AO2 LTG DSNT E RAB37E50 SLP176 P0000 T02720200
KCEU 061454Z AUTO 08007KT 10SM FEW021 SCT031 BKN044 26/20 A3009 RMK AO2 SLP177 T02610200 51006
KCEU 061354Z AUTO 07006KT 10SM SCT018 BKN038 26/21 A3009 RMK AO2 SLP177 T02560206
KCEU 061343Z AUTO 07006KT 9SM BKN016 BKN025 26/21 A3008 RMK AO2 T02560206
KCEU 061336Z AUTO 08005KT 9SM BKN014 25/21 A3008 RMK AO2 T02500206
KCEU 061327Z AUTO VRB05KT 9SM BKN015 25/21 A3008 RMK AO2 T02500206
KCEU 061254Z AUTO 06005KT 8SM SCT012 24/21 A3007 RMK AO2 SLP172 T02440206
KCEU 061224Z AUTO 06004KT 8SM FEW010 BKN022 24/20 A3008 RMK AO2 T02390200
KCEU 061154Z AUTO 06004KT 8SM SCT009 23/19 A3007 RMK AO2 SLP171 T02280194 10239 20211 51014
KCEU 061144Z AUTO 07004KT 8SM SCT009 23/19 A3007 RMK AO2 T02280194
KCEU 061054Z AUTO 07003KT 7SM CLR 22/19 A3005 RMK AO2 SLP166 T02170194
KCEU 060954Z AUTO 00000KT 8SM FEW043 22/19 A3004 RMK AO2 SLP161 T02170194
KCEU 060854Z AUTO 00000KT 8SM OVC050 22/19 A3003 RMK AO2 SLP155 T02170194 55001
KCEU 060754Z AUTO 00000KT 8SM SCT045 23/19 A3002 RMK AO2 SLP153 T02280189
KCEU 060654Z AUTO 05003KT 9SM CLR 23/19 A3002 RMK AO2 SLP153 T02280189
KCEU 060554Z AUTO 00000KT 9SM CLR 24/18 A3003 RMK AO2 SLP156 T02390183 10283 20239 50004
KCEU 060454Z AUTO VRB03KT 9SM CLR 24/18 A3004 RMK AO2 SLP159 T02440183 403280222
KCEU 060354Z AUTO 14003KT 9SM CLR 25/18 A3003 RMK AO2 SLP156 T02500178
KCEU 060254Z AUTO 00000KT 8SM CLR 26/18 A3002 RMK AO2 SLP152 T02610178 51017
KCEU 060154Z AUTO 00000KT 9SM CLR 27/18 A3000 RMK AO2 SLP148 T02670183